createdAt,value
2018-12-18T00:00:16.053Z,17.23
2018-12-18T00:02:47.385Z,18.57
2018-12-18T00:05:21.952Z,18.37
2018-12-18T00:07:51.237Z,18.60
2018-12-18T00:10:20.511Z,20.48
2018-12-18T00:12:49.878Z,19.15
2018-12-18T00:15:19.309Z,22.65
2018-12-18T00:17:49.636Z,22.00
2018-12-18T00:20:19.024Z,21.42
2018-12-18T00:22:48.316Z,21.97
2018-12-18T00:25:17.612Z,22.10
2018-12-18T00:27:46.990Z,22.37
2018-12-18T00:30:16.681Z,24.32
2018-12-18T00:32:45.923Z,23.47
2018-12-18T00:35:16.454Z,22.60
2018-12-18T00:37:45.936Z,23.83
2018-12-18T00:40:15.375Z,25.40
2018-12-18T00:42:44.931Z,25.43
2018-12-18T00:45:14.287Z,25.48
2018-12-18T00:47:44.057Z,25.97
2018-12-18T00:50:13.476Z,26.73
2018-12-18T00:52:42.796Z,25.95
2018-12-18T00:55:12.751Z,25.95
2018-12-18T00:57:42.359Z,27.82
2018-12-18T01:00:11.878Z,27.48
2018-12-18T01:02:41.234Z,28.05
2018-12-18T01:05:10.499Z,29.57
2018-12-18T01:07:39.981Z,30.48
2018-12-18T01:10:09.555Z,31.15
2018-12-18T01:12:38.836Z,29.15
2018-12-18T01:15:08.191Z,31.97
2018-12-18T01:17:37.560Z,30.55
2018-12-18T01:20:06.912Z,29.85
2018-12-18T01:22:36.248Z,30.50
2018-12-18T01:25:05.933Z,34.50
2018-12-18T01:27:35.204Z,30.17
2018-12-18T01:30:05.825Z,32.53
2018-12-18T01:32:35.213Z,31.87
2018-12-18T01:35:05.239Z,33.00
2018-12-18T01:37:34.519Z,33.92
2018-12-18T01:40:03.951Z,32.28
2018-12-18T01:42:33.359Z,33.78
2018-12-18T01:45:02.960Z,31.27
2018-12-18T01:47:32.198Z,34.05
2018-12-18T01:50:01.677Z,34.13
2018-12-18T01:52:31.144Z,33.15
2018-12-18T01:55:00.598Z,35.08
2018-12-18T01:57:29.916Z,34.83
2018-12-18T01:59:59.428Z,33.60
2018-12-18T02:02:28.786Z,34.60
2018-12-18T02:04:58.119Z,35.25
2018-12-18T02:07:27.597Z,35.35
2018-12-18T02:09:56.905Z,34.75
2018-12-18T02:12:26.355Z,33.30
2018-12-18T02:14:55.871Z,37.70
2018-12-18T02:17:25.115Z,32.88
2018-12-18T02:19:54.468Z,36.03
2018-12-18T02:22:23.801Z,35.33
2018-12-18T02:24:53.303Z,34.90
2018-12-18T02:27:22.663Z,35.20
2018-12-18T02:29:52.026Z,34.88
2018-12-18T02:32:21.295Z,38.33
2018-12-18T02:34:50.750Z,35.38
2018-12-18T02:37:20.169Z,36.00
2018-12-18T02:39:49.515Z,35.40
2018-12-18T02:42:18.784Z,34.75
2018-12-18T02:44:48.134Z,35.33
2018-12-18T02:47:17.831Z,37.03
2018-12-18T02:49:47.067Z,37.08
2018-12-18T02:52:16.369Z,33.70
2018-12-18T02:54:45.674Z,34.30
2018-12-18T02:57:14.995Z,33.50
2018-12-18T02:59:44.296Z,33.95
2018-12-18T03:02:13.787Z,35.05
2018-12-18T03:04:43.272Z,35.85
2018-12-18T03:07:12.606Z,34.85
2018-12-18T03:09:41.989Z,34.55
2018-12-18T03:12:11.271Z,33.60
2018-12-18T03:14:40.865Z,33.05
2018-12-18T03:17:10.112Z,35.23
2018-12-18T03:19:39.496Z,32.40
2018-12-18T03:22:08.827Z,33.20
2018-12-18T03:24:38.141Z,33.25
2018-12-18T03:27:07.399Z,32.35
2018-12-18T03:29:36.738Z,31.75
2018-12-18T03:32:10.771Z,33.00
2018-12-18T03:34:40.512Z,29.72
2018-12-18T03:37:09.863Z,32.05
2018-12-18T03:39:39.125Z,34.30
2018-12-18T03:42:08.393Z,31.23
2018-12-18T03:44:37.749Z,31.82
2018-12-18T03:47:07.079Z,33.45
2018-12-18T03:49:36.468Z,34.53
2018-12-18T03:52:05.760Z,33.02
2018-12-18T03:54:35.224Z,33.90
2018-12-18T03:57:04.618Z,33.13
2018-12-18T03:59:33.981Z,33.00
2018-12-18T04:02:03.421Z,32.25
2018-12-18T04:04:35.778Z,32.73
2018-12-18T04:07:04.228Z,29.90
2018-12-18T04:09:33.481Z,29.70
2018-12-18T04:12:08.882Z,32.45
2018-12-18T04:14:38.186Z,33.95
2018-12-18T04:17:07.569Z,29.05
2018-12-18T04:19:36.966Z,31.45
2018-12-18T04:22:06.457Z,30.92
2018-12-18T04:24:35.763Z,31.93
2018-12-18T04:27:05.145Z,32.48
2018-12-18T04:29:34.416Z,32.05
2018-12-18T04:32:03.762Z,30.30
2018-12-18T04:34:33.195Z,31.42
2018-12-18T04:37:02.629Z,31.48
2018-12-18T04:39:32.069Z,33.48
2018-12-18T04:42:01.543Z,29.30
2018-12-18T04:44:30.868Z,31.33
2018-12-18T04:47:00.180Z,31.70
2018-12-18T04:49:29.644Z,29.65
2018-12-18T04:51:59.119Z,28.45
2018-12-18T04:54:28.440Z,30.32
2018-12-18T04:56:57.987Z,29.00
2018-12-18T04:59:27.359Z,28.62
2018-12-18T05:01:56.728Z,28.98
2018-12-18T05:04:26.118Z,29.90
2018-12-18T05:06:55.426Z,30.48
2018-12-18T05:09:25.000Z,28.65
2018-12-18T05:11:54.355Z,30.10
2018-12-18T05:14:23.599Z,28.52
2018-12-18T05:16:52.849Z,30.08
2018-12-18T05:19:22.250Z,31.20
2018-12-18T05:21:51.825Z,28.55
2018-12-18T05:24:21.160Z,29.48
2018-12-18T05:26:50.735Z,31.45
2018-12-18T05:29:20.073Z,31.65
2018-12-18T05:31:49.342Z,30.88
2018-12-18T05:34:18.786Z,27.40
2018-12-18T05:36:48.046Z,27.10
2018-12-18T05:39:17.404Z,31.15
2018-12-18T05:41:46.991Z,28.87
2018-12-18T05:44:16.822Z,29.20
2018-12-18T05:46:46.303Z,33.28
2018-12-18T05:49:15.920Z,32.00
2018-12-18T05:51:45.299Z,32.13
2018-12-18T05:54:15.414Z,30.72
2018-12-18T05:56:44.758Z,30.17
2018-12-18T05:59:14.427Z,29.72
2018-12-18T06:01:44.342Z,31.00
2018-12-18T06:04:13.951Z,30.10
2018-12-18T06:06:43.319Z,30.97
2018-12-18T06:09:12.612Z,33.67
2018-12-18T06:11:41.919Z,33.45
2018-12-18T06:14:13.020Z,29.48
2018-12-18T06:16:42.464Z,29.67
2018-12-18T06:19:12.415Z,28.65
2018-12-18T06:21:41.814Z,30.35
2018-12-18T06:24:11.329Z,29.20
2018-12-18T06:26:40.673Z,30.60
2018-12-18T06:29:09.981Z,30.10
2018-12-18T06:31:39.404Z,30.65
2018-12-18T06:34:08.694Z,28.70
2018-12-18T06:36:37.972Z,28.45
2018-12-18T06:39:14.053Z,28.57
2018-12-18T06:41:43.318Z,30.62
2018-12-18T06:44:12.682Z,29.72
2018-12-18T06:46:41.984Z,29.65
2018-12-18T06:49:11.277Z,31.40
2018-12-18T06:51:40.631Z,30.88
2018-12-18T06:54:10.121Z,29.55
2018-12-18T06:56:39.459Z,29.75
2018-12-18T06:59:08.766Z,27.65
2018-12-18T07:01:38.043Z,30.48
2018-12-18T07:04:07.600Z,27.52
2018-12-18T07:06:37.128Z,26.62
2018-12-18T07:09:08.807Z,29.75
2018-12-18T07:11:38.203Z,26.42
2018-12-18T07:14:07.525Z,29.30
2018-12-18T07:16:37.230Z,28.27
2018-12-18T07:19:06.647Z,27.85
2018-12-18T07:21:36.101Z,27.52
2018-12-18T07:24:06.344Z,25.48
2018-12-18T07:26:35.734Z,28.07
2018-12-18T07:29:04.953Z,28.17
2018-12-18T07:31:34.413Z,25.75
2018-12-18T07:34:03.735Z,25.40
2018-12-18T07:36:33.076Z,25.00
2018-12-18T07:39:02.417Z,24.27
2018-12-18T07:41:31.776Z,26.05
2018-12-18T07:44:01.222Z,25.72
2018-12-18T07:46:30.665Z,24.23
2018-12-18T07:49:00.052Z,22.20
2018-12-18T07:51:29.361Z,20.43
2018-12-18T07:53:58.780Z,22.93
2018-12-18T07:56:28.435Z,23.35
2018-12-18T07:58:59.136Z,25.48
2018-12-18T08:01:28.824Z,24.63
2018-12-18T08:03:58.290Z,28.90
2018-12-18T08:06:27.609Z,26.60
2018-12-18T08:08:56.967Z,27.35
2018-12-18T08:11:26.284Z,28.27
2018-12-18T08:13:55.537Z,29.82
2018-12-18T08:16:24.827Z,31.12
2018-12-18T08:18:54.344Z,29.57
2018-12-18T08:21:24.676Z,29.23
2018-12-18T08:23:53.995Z,31.10
2018-12-18T08:26:23.246Z,29.98
2018-12-18T08:28:52.580Z,30.55
2018-12-18T08:31:21.959Z,28.30
2018-12-18T08:33:51.324Z,29.27
2018-12-18T08:36:20.609Z,25.65
2018-12-18T08:38:50.206Z,22.45
2018-12-18T08:41:19.669Z,22.50
2018-12-18T08:43:49.154Z,21.70
2018-12-18T08:46:18.933Z,22.30
2018-12-18T08:48:48.203Z,22.90
2018-12-18T08:51:17.773Z,22.87
2018-12-18T08:53:47.060Z,25.45
2018-12-18T08:56:16.415Z,24.67
2018-12-18T08:58:45.888Z,20.50
2018-12-18T09:01:15.144Z,20.27
2018-12-18T09:03:44.424Z,20.40
2018-12-18T09:06:13.891Z,20.55
2018-12-18T09:08:43.295Z,18.67
2018-12-18T09:11:12.591Z,23.75
2018-12-18T09:13:42.143Z,21.68
2018-12-18T09:16:17.077Z,20.08
2018-12-18T09:18:46.453Z,20.85
2018-12-18T09:21:15.778Z,20.97
2018-12-18T09:23:45.165Z,20.82
2018-12-18T09:26:14.836Z,23.47
2018-12-18T09:28:44.206Z,23.75
2018-12-18T09:31:13.720Z,21.12
2018-12-18T09:33:42.956Z,22.45
2018-12-18T09:36:12.318Z,23.27
2018-12-18T09:38:47.588Z,22.62
2018-12-18T09:41:22.687Z,22.90
2018-12-18T09:43:58.957Z,22.05
2018-12-18T09:46:29.441Z,20.60
2018-12-18T09:48:59.039Z,21.05
2018-12-18T09:51:28.687Z,22.10
2018-12-18T09:53:58.272Z,21.07
2018-12-18T09:56:28.708Z,21.23
2018-12-18T09:58:58.086Z,21.15
2018-12-18T10:01:27.559Z,22.37
2018-12-18T10:03:57.166Z,19.65
2018-12-18T10:06:26.502Z,20.50
2018-12-18T10:08:56.139Z,21.37
2018-12-18T10:11:25.548Z,21.93
2018-12-18T10:13:55.382Z,21.42
2018-12-18T10:16:24.885Z,23.90
2018-12-18T10:18:54.350Z,22.37
2018-12-18T10:21:23.720Z,21.15
2018-12-18T10:23:53.063Z,21.82
2018-12-18T10:26:22.695Z,20.23
2018-12-18T10:28:52.010Z,21.97
2018-12-18T10:31:21.341Z,18.80
2018-12-18T10:33:51.052Z,21.87
2018-12-18T10:36:20.353Z,21.50
2018-12-18T10:38:49.819Z,18.48
2018-12-18T10:41:19.126Z,17.92
2018-12-18T10:43:48.451Z,20.12
2018-12-18T10:46:17.803Z,18.35
2018-12-18T10:48:47.154Z,18.00
2018-12-18T10:51:17.519Z,18.48
2018-12-18T10:53:46.754Z,19.35
2018-12-18T10:56:16.056Z,19.52
2018-12-18T10:58:45.387Z,18.10
2018-12-18T11:01:18.885Z,18.90
2018-12-18T11:03:48.339Z,18.70
2018-12-18T11:06:17.660Z,16.60
2018-12-18T11:08:46.916Z,19.05
2018-12-18T11:11:16.185Z,16.42
2018-12-18T11:13:45.636Z,15.80
2018-12-18T11:16:15.092Z,18.60
2018-12-18T11:18:44.419Z,17.15
2018-12-18T11:21:13.667Z,19.23
2018-12-18T11:23:43.060Z,16.48
2018-12-18T11:26:12.448Z,17.57
2018-12-18T11:28:41.689Z,19.65
2018-12-18T11:31:11.120Z,17.00
2018-12-18T11:33:41.447Z,16.50
2018-12-18T11:36:16.232Z,18.45
2018-12-18T11:38:42.158Z,16.93
2018-12-18T11:41:11.474Z,15.95
2018-12-18T11:43:41.029Z,19.27
2018-12-18T11:46:10.339Z,17.45
2018-12-18T11:48:39.656Z,17.98
2018-12-18T11:51:08.923Z,18.65
2018-12-18T11:53:38.255Z,18.73
2018-12-18T11:56:07.555Z,18.82
2018-12-18T11:58:36.854Z,20.12
2018-12-18T12:01:06.221Z,19.65
2018-12-18T12:03:35.567Z,19.42
2018-12-18T12:06:05.106Z,20.10
2018-12-18T12:08:34.433Z,20.00
2018-12-18T12:11:03.791Z,21.80
2018-12-18T12:13:33.065Z,17.87
2018-12-18T12:16:02.397Z,19.95
2018-12-18T12:18:31.691Z,17.27
2018-12-18T12:21:01.025Z,16.73
2018-12-18T12:23:30.293Z,16.57
2018-12-18T12:26:01.718Z,15.60
2018-12-18T12:28:31.106Z,17.57
2018-12-18T12:31:00.399Z,16.30
2018-12-18T12:33:29.686Z,20.23
2018-12-18T12:35:59.275Z,18.90
2018-12-18T12:38:28.576Z,17.87
2018-12-18T12:40:57.838Z,19.57
2018-12-18T12:43:27.194Z,18.75
2018-12-18T12:45:56.487Z,17.77
2018-12-18T12:48:29.951Z,19.67
2018-12-18T12:50:59.213Z,18.60
2018-12-18T12:53:28.547Z,19.45
2018-12-18T12:55:57.919Z,21.73
2018-12-18T12:58:27.349Z,22.62
2018-12-18T13:00:56.606Z,21.65
2018-12-18T13:03:25.859Z,22.73
2018-12-18T13:05:55.189Z,22.65
2018-12-18T13:08:24.488Z,21.40
2018-12-18T13:10:53.809Z,20.43
2018-12-18T13:13:23.319Z,32.10
2018-12-18T13:15:52.876Z,24.63
2018-12-18T13:18:22.177Z,23.75
2018-12-18T13:20:51.496Z,25.40
2018-12-18T13:23:20.886Z,24.85
2018-12-18T13:25:50.220Z,22.52
2018-12-18T13:28:19.482Z,22.80
2018-12-18T13:30:48.874Z,23.60
2018-12-18T13:33:18.349Z,24.45
2018-12-18T13:35:47.624Z,24.50
2018-12-18T13:38:17.186Z,25.30
2018-12-18T13:40:46.473Z,23.45
2018-12-18T13:43:15.867Z,33.38
2018-12-18T13:45:45.311Z,26.80
2018-12-18T13:48:14.845Z,24.75
2018-12-18T13:50:44.419Z,24.12
2018-12-18T13:53:14.056Z,24.92
2018-12-18T13:55:43.843Z,25.43
2018-12-18T13:58:13.099Z,24.05
2018-12-18T14:00:42.493Z,25.50
2018-12-18T14:03:11.907Z,27.07
2018-12-18T14:05:41.303Z,27.22
2018-12-18T14:08:10.607Z,28.45
2018-12-18T14:10:39.955Z,26.42
2018-12-18T14:13:09.259Z,27.85
2018-12-18T14:15:38.702Z,27.52
2018-12-18T14:18:08.374Z,27.32
2018-12-18T14:20:37.712Z,27.37
2018-12-18T14:23:07.024Z,27.82
2018-12-18T14:25:36.476Z,28.42
2018-12-18T14:28:05.839Z,27.55
2018-12-18T14:30:35.194Z,27.70
2018-12-18T14:33:05.603Z,29.55
2018-12-18T14:35:36.283Z,29.00
2018-12-18T14:38:05.825Z,28.12
2018-12-18T14:40:38.268Z,27.90
2018-12-18T14:43:07.655Z,30.72
2018-12-18T14:45:36.955Z,29.60
2018-12-18T14:48:06.745Z,29.20
2018-12-18T14:50:36.291Z,30.72
2018-12-18T14:53:05.610Z,33.45
2018-12-18T14:55:35.148Z,28.02
2018-12-18T14:58:05.036Z,30.50
2018-12-18T15:00:34.635Z,32.08
2018-12-18T15:03:04.282Z,28.90
2018-12-18T15:05:33.665Z,30.35
2018-12-18T15:08:05.337Z,39.75
2018-12-18T15:10:34.887Z,30.40
2018-12-18T15:13:04.184Z,31.85
2018-12-18T15:15:33.655Z,31.65
2018-12-18T15:18:03.146Z,30.35
2018-12-18T15:20:32.687Z,35.38
2018-12-18T15:23:02.189Z,33.13
2018-12-18T15:25:31.530Z,30.27
2018-12-18T15:28:00.908Z,32.05
2018-12-18T15:30:30.560Z,31.07
2018-12-18T15:33:00.373Z,31.57
2018-12-18T15:35:30.881Z,34.92
2018-12-18T15:38:00.728Z,33.83
2018-12-18T15:40:30.304Z,31.35
2018-12-18T15:43:00.020Z,35.13
2018-12-18T15:45:29.395Z,34.13
2018-12-18T15:47:59.171Z,32.73
2018-12-18T15:50:29.039Z,34.58
2018-12-18T15:52:58.680Z,32.40
2018-12-18T15:55:29.050Z,30.55
2018-12-18T15:57:58.702Z,32.88
2018-12-18T16:00:28.477Z,32.20
2018-12-18T16:02:57.941Z,30.95
2018-12-18T16:05:27.348Z,33.05
2018-12-18T16:07:56.833Z,30.75
2018-12-18T16:10:27.243Z,30.05
2018-12-18T16:12:56.740Z,28.40
2018-12-18T16:15:26.387Z,27.67
2018-12-18T16:17:55.857Z,26.60
2018-12-18T16:20:25.874Z,27.75
2018-12-18T16:22:55.777Z,28.45
2018-12-18T16:25:25.411Z,28.27
2018-12-18T16:27:55.318Z,27.62
2018-12-18T16:30:25.083Z,30.80
2018-12-18T16:32:54.612Z,30.65
2018-12-18T16:35:23.943Z,27.55
2018-12-18T16:37:53.548Z,25.70
2018-12-18T16:40:23.984Z,27.62
2018-12-18T16:42:54.007Z,27.17
2018-12-18T16:45:23.608Z,26.33
2018-12-18T16:47:53.614Z,28.30
2018-12-18T16:50:26.555Z,27.75
2018-12-18T16:52:54.508Z,23.02
2018-12-18T16:55:23.852Z,25.30
2018-12-18T16:57:54.308Z,21.87
2018-12-18T17:00:23.960Z,22.02
2018-12-18T17:02:54.403Z,24.25
2018-12-18T17:05:23.921Z,23.02
2018-12-18T17:07:53.431Z,24.40
2018-12-18T17:10:22.720Z,22.45
2018-12-18T17:12:56.939Z,23.18
2018-12-18T17:15:26.450Z,22.27
2018-12-18T17:17:55.982Z,25.05
2018-12-18T17:20:26.314Z,23.27
2018-12-18T17:22:55.612Z,22.15
2018-12-18T17:25:24.977Z,22.82
2018-12-18T17:27:54.386Z,24.10
2018-12-18T17:30:23.669Z,24.35
2018-12-18T17:32:52.979Z,21.45
2018-12-18T17:35:23.692Z,21.25
2018-12-18T17:37:53.033Z,23.02
2018-12-18T17:40:22.346Z,19.85
2018-12-18T17:42:51.806Z,21.42
2018-12-18T17:45:21.435Z,19.87
2018-12-18T17:47:51.136Z,20.08
2018-12-18T17:50:20.512Z,20.40
2018-12-18T17:52:49.786Z,18.40
2018-12-18T17:55:20.093Z,19.77
2018-12-18T17:57:49.682Z,18.67
2018-12-18T18:00:19.009Z,18.73
2018-12-18T18:02:48.589Z,18.95
2018-12-18T18:05:18.314Z,17.95
2018-12-18T18:07:47.793Z,17.67
2018-12-18T18:10:17.477Z,16.57
2018-12-18T18:12:48.524Z,17.65
2018-12-18T18:15:18.373Z,17.98
2018-12-18T18:17:48.754Z,17.87
2018-12-18T18:20:18.367Z,16.23
2018-12-18T18:22:48.295Z,17.75
2018-12-18T18:25:17.628Z,18.90
2018-12-18T18:27:47.154Z,18.25
2018-12-18T18:30:16.591Z,17.30
2018-12-18T18:32:45.836Z,17.75
2018-12-18T18:35:15.358Z,17.10
2018-12-18T18:37:49.666Z,17.42
2018-12-18T18:40:16.464Z,18.50
2018-12-18T18:42:45.924Z,17.37
2018-12-18T18:45:15.448Z,18.90
2018-12-18T18:47:44.755Z,18.52
2018-12-18T18:50:14.125Z,19.12
2018-12-18T18:52:43.455Z,19.67
2018-12-18T18:55:12.995Z,22.65
2018-12-18T18:57:42.715Z,19.87
2018-12-18T19:00:12.280Z,20.05
2018-12-18T19:02:41.522Z,17.52
2018-12-18T19:05:10.955Z,14.73
2018-12-18T19:07:40.544Z,19.55
2018-12-18T19:10:09.928Z,19.27
2018-12-18T19:12:39.418Z,18.10
2018-12-18T19:15:09.055Z,15.85
2018-12-18T19:17:38.633Z,16.67
2018-12-18T19:20:08.103Z,15.68
2018-12-18T19:22:37.572Z,16.80
2018-12-18T19:25:07.078Z,16.90
2018-12-18T19:27:36.469Z,17.40
2018-12-18T19:30:06.076Z,17.50
2018-12-18T19:32:35.431Z,16.57
2018-12-18T19:35:05.516Z,19.60
2018-12-18T19:37:34.881Z,16.97
2018-12-18T19:40:04.632Z,15.78
2018-12-18T19:42:34.266Z,30.43
2018-12-18T19:45:04.593Z,21.20
2018-12-18T19:47:34.292Z,16.40
2018-12-18T19:50:03.695Z,15.72
2018-12-18T19:52:33.235Z,16.35
2018-12-18T19:55:02.819Z,16.15
2018-12-18T19:57:32.399Z,17.30
2018-12-18T20:00:01.916Z,16.90
2018-12-18T20:02:31.967Z,17.52
2018-12-18T20:05:01.302Z,17.55
2018-12-18T20:07:30.557Z,13.68
2018-12-18T20:09:59.894Z,16.75
2018-12-18T20:12:29.218Z,16.15
2018-12-18T20:14:58.596Z,17.80
2018-12-18T20:17:27.934Z,18.67
2018-12-18T20:19:57.477Z,15.98
2018-12-18T20:22:27.264Z,17.60
2018-12-18T20:24:56.988Z,16.00
2018-12-18T20:27:26.689Z,17.15
2018-12-18T20:29:56.058Z,16.93
2018-12-18T20:32:25.683Z,17.30
2018-12-18T20:34:55.030Z,17.45
2018-12-18T20:37:24.372Z,16.95
2018-12-18T20:39:53.860Z,17.42
2018-12-18T20:42:23.325Z,15.48
2018-12-18T20:44:52.727Z,14.93
2018-12-18T20:47:22.088Z,14.87
2018-12-18T20:49:51.495Z,17.57
2018-12-18T20:52:20.877Z,17.70
2018-12-18T20:54:50.205Z,15.25
2018-12-18T20:57:19.499Z,16.77
2018-12-18T20:59:48.816Z,20.85
2018-12-18T21:02:18.278Z,21.12
2018-12-18T21:04:47.582Z,15.72
2018-12-18T21:07:18.293Z,15.40
2018-12-18T21:09:48.259Z,16.00
2018-12-18T21:12:18.015Z,20.80
2018-12-18T21:14:47.452Z,16.12
2018-12-18T21:17:16.810Z,19.67
2018-12-18T21:19:46.459Z,17.00
2018-12-18T21:22:16.320Z,18.07
2018-12-18T21:24:45.849Z,18.05
2018-12-18T21:27:15.226Z,22.67
2018-12-18T21:29:44.502Z,18.42
2018-12-18T21:32:13.859Z,17.60
2018-12-18T21:34:43.113Z,20.00
2018-12-18T21:37:12.323Z,18.70
2018-12-18T21:39:42.587Z,25.35
2018-12-18T21:42:11.921Z,18.23
2018-12-18T21:44:41.588Z,19.65
2018-12-18T21:47:10.895Z,19.65
2018-12-18T21:49:41.337Z,23.42
2018-12-18T21:52:10.768Z,20.90
2018-12-18T21:54:40.178Z,18.87
2018-12-18T21:57:09.467Z,20.00
2018-12-18T21:59:38.809Z,20.12
2018-12-18T22:02:08.220Z,19.27
2018-12-18T22:04:37.402Z,18.92
2018-12-18T22:07:07.084Z,19.48
2018-12-18T22:09:36.515Z,19.70
2018-12-18T22:12:06.291Z,20.65
2018-12-18T22:14:35.618Z,18.37
2018-12-18T22:17:05.308Z,21.33
2018-12-18T22:19:35.333Z,18.55
2018-12-18T22:22:05.717Z,21.90
2018-12-18T22:24:35.161Z,17.45
2018-12-18T22:27:05.385Z,16.30
2018-12-18T22:29:35.209Z,17.00
2018-12-18T22:32:04.488Z,19.25
2018-12-18T22:34:33.875Z,17.50
2018-12-18T22:37:05.887Z,19.15
2018-12-18T22:39:35.856Z,17.37
2018-12-18T22:42:05.692Z,16.90
2018-12-18T22:44:35.723Z,15.48
2018-12-18T22:47:05.133Z,17.65
2018-12-18T22:49:34.469Z,17.00
2018-12-18T22:52:04.288Z,16.07
2018-12-18T22:54:33.616Z,15.80
2018-12-18T22:57:06.016Z,17.17
2018-12-18T22:59:35.486Z,17.27
2018-12-18T23:02:22.006Z,14.43
2018-12-18T23:04:53.130Z,15.18
2018-12-18T23:07:22.537Z,15.35
2018-12-18T23:09:52.114Z,15.28
2018-12-18T23:12:21.457Z,14.23
2018-12-18T23:14:50.933Z,15.03
2018-12-18T23:17:20.191Z,15.65
2018-12-18T23:19:49.819Z,15.93
2018-12-18T23:22:19.176Z,13.28
2018-12-18T23:24:49.366Z,14.15
2018-12-18T23:27:19.742Z,13.93
2018-12-18T23:29:49.358Z,14.70
2018-12-18T23:32:22.898Z,14.35
2018-12-18T23:34:54.917Z,13.22
2018-12-18T23:37:24.203Z,13.80
2018-12-18T23:39:53.438Z,12.88
2018-12-18T23:42:22.788Z,13.93
2018-12-18T23:44:52.189Z,13.72
2018-12-18T23:47:21.477Z,13.80
2018-12-18T23:49:50.873Z,13.22
2018-12-18T23:52:20.404Z,13.00
2018-12-18T23:54:49.920Z,15.05
2018-12-18T23:57:19.488Z,13.28
2018-12-18T23:59:49.145Z,13.13
